sensor_id;sensor_type;location;lat;lon;timestamp;pressure;altitude;pressure_sealevel;temperature;humidity
33414;BME280;60055;41.884;12.534;2024-03-22T00:01:04;101431.50;;;15.75;64.13
33414;BME280;60055;41.884;12.534;2024-03-22T00:03:30;101428.34;;;15.86;64.11
33414;BME280;60055;41.884;12.534;2024-03-22T00:05:55;101424.38;;;15.76;64.27
33414;BME280;60055;41.884;12.534;2024-03-22T00:08:20;101424.09;;;15.82;64.57
33414;BME280;60055;41.884;12.534;2024-03-22T00:10:46;101423.19;;;15.83;64.35
33414;BME280;60055;41.884;12.534;2024-03-22T00:13:11;101413.88;;;15.73;64.88
33414;BME280;60055;41.884;12.534;2024-03-22T00:15:37;101405.47;;;15.82;64.70
33414;BME280;60055;41.884;12.534;2024-03-22T00:18:02;101407.97;;;15.85;65.03
33414;BME280;60055;41.884;12.534;2024-03-22T00:20:28;101407.41;;;15.97;64.06
33414;BME280;60055;41.884;12.534;2024-03-22T00:22:53;101412.66;;;15.99;64.59
33414;BME280;60055;41.884;12.534;2024-03-22T00:25:18;101412.53;;;16.02;64.49
33414;BME280;60055;41.884;12.534;2024-03-22T00:27:44;101404.75;;;15.97;64.09
33414;BME280;60055;41.884;12.534;2024-03-22T00:30:09;101404.03;;;15.94;64.77
33414;BME280;60055;41.884;12.534;2024-03-22T00:32:35;101395.47;;;15.87;64.96
33414;BME280;60055;41.884;12.534;2024-03-22T00:35:00;101394.91;;;15.80;65.21
33414;BME280;60055;41.884;12.534;2024-03-22T00:37:26;101401.59;;;15.70;65.44
33414;BME280;60055;41.884;12.534;2024-03-22T00:39:51;101391.00;;;15.50;65.68
33414;BME280;60055;41.884;12.534;2024-03-22T00:42:16;101391.97;;;15.48;65.32
33414;BME280;60055;41.884;12.534;2024-03-22T00:44:42;101388.97;;;15.35;64.58
33414;BME280;60055;41.884;12.534;2024-03-22T00:47:07;101382.19;;;15.28;64.61
33414;BME280;60055;41.884;12.534;2024-03-22T00:49:32;101390.94;;;15.11;64.52
33414;BME280;60055;41.884;12.534;2024-03-22T00:51:58;101393.09;;;14.83;65.95
33414;BME280;60055;41.884;12.534;2024-03-22T00:54:23;101389.06;;;14.53;68.44
33414;BME280;60055;41.884;12.534;2024-03-22T00:56:48;101395.72;;;14.63;68.88
33414;BME280;60055;41.884;12.534;2024-03-22T00:59:14;101387.53;;;14.67;69.67
33414;BME280;60055;41.884;12.534;2024-03-22T01:01:39;101387.09;;;14.78;70.20
33414;BME280;60055;41.884;12.534;2024-03-22T01:04:05;101381.03;;;14.74;70.62
33414;BME280;60055;41.884;12.534;2024-03-22T01:06:30;101376.75;;;14.70;71.96
33414;BME280;60055;41.884;12.534;2024-03-22T01:08:56;101374.09;;;14.70;72.57
33414;BME280;60055;41.884;12.534;2024-03-22T01:11:21;101371.53;;;14.69;73.12
33414;BME280;60055;41.884;12.534;2024-03-22T01:13:46;101369.19;;;14.81;72.80
33414;BME280;60055;41.884;12.534;2024-03-22T01:16:12;101354.97;;;14.62;73.99
33414;BME280;60055;41.884;12.534;2024-03-22T01:18:38;101354.97;;;14.62;73.77
33414;BME280;60055;41.884;12.534;2024-03-22T01:21:04;101352.91;;;14.49;75.12
33414;BME280;60055;41.884;12.534;2024-03-22T01:23:30;101343.34;;;14.45;75.16
33414;BME280;60055;41.884;12.534;2024-03-22T01:25:56;101339.66;;;14.47;74.98
33414;BME280;60055;41.884;12.534;2024-03-22T01:28:22;101339.41;;;14.53;75.87
33414;BME280;60055;41.884;12.534;2024-03-22T01:30:47;101345.72;;;14.51;75.91
33414;BME280;60055;41.884;12.534;2024-03-22T01:33:13;101337.75;;;14.51;76.72
33414;BME280;60055;41.884;12.534;2024-03-22T01:35:39;101338.81;;;14.67;77.06
33414;BME280;60055;41.884;12.534;2024-03-22T01:38:04;101337.47;;;14.57;77.24
33414;BME280;60055;41.884;12.534;2024-03-22T01:40:30;101330.97;;;14.64;77.58
33414;BME280;60055;41.884;12.534;2024-03-22T01:42:56;101332.91;;;14.60;77.87
33414;BME280;60055;41.884;12.534;2024-03-22T01:45:22;101322.75;;;14.70;78.66
33414;BME280;60055;41.884;12.534;2024-03-22T01:47:50;101334.78;;;14.78;78.72
33414;BME280;60055;41.884;12.534;2024-03-22T01:50:16;101323.00;;;14.84;78.48
33414;BME280;60055;41.884;12.534;2024-03-22T01:52:42;101321.16;;;14.86;78.65
33414;BME280;60055;41.884;12.534;2024-03-22T01:55:07;101318.41;;;14.67;78.29
33414;BME280;60055;41.884;12.534;2024-03-22T01:57:33;101311.84;;;14.56;79.04
33414;BME280;60055;41.884;12.534;2024-03-22T01:59:59;101315.31;;;14.58;79.13
33414;BME280;60055;41.884;12.534;2024-03-22T02:02:25;101310.72;;;14.61;79.14
33414;BME280;60055;41.884;12.534;2024-03-22T02:04:53;101299.22;;;14.61;79.66
33414;BME280;60055;41.884;12.534;2024-03-22T02:07:18;101306.44;;;14.77;79.53
33414;BME280;60055;41.884;12.534;2024-03-22T02:09:44;101296.78;;;14.76;79.36
33414;BME280;60055;41.884;12.534;2024-03-22T02:12:13;101309.56;;;14.67;79.05
33414;BME280;60055;41.884;12.534;2024-03-22T02:14:41;101301.81;;;14.62;79.58
33414;BME280;60055;41.884;12.534;2024-03-22T02:17:06;101298.56;;;14.76;79.50
33414;BME280;60055;41.884;12.534;2024-03-22T02:19:32;101294.72;;;14.83;79.18
33414;BME280;60055;41.884;12.534;2024-03-22T02:21:58;101292.56;;;14.91;79.42
33414;BME280;60055;41.884;12.534;2024-03-22T02:24:23;101289.41;;;15.02;79.08
33414;BME280;60055;41.884;12.534;2024-03-22T02:26:49;101283.16;;;15.03;79.07
33414;BME280;60055;41.884;12.534;2024-03-22T02:29:14;101284.03;;;15.03;79.22
33414;BME280;60055;41.884;12.534;2024-03-22T02:31:40;101272.44;;;15.04;78.56
33414;BME280;60055;41.884;12.534;2024-03-22T02:34:06;101273.59;;;14.99;79.38
33414;BME280;60055;41.884;12.534;2024-03-22T02:36:32;101263.97;;;14.96;79.63
33414;BME280;60055;41.884;12.534;2024-03-22T02:38:57;101271.06;;;14.96;79.21
33414;BME280;60055;41.884;12.534;2024-03-22T02:41:23;101255.03;;;14.97;79.34
33414;BME280;60055;41.884;12.534;2024-03-22T02:43:49;101258.31;;;15.04;78.10
33414;BME280;60055;41.884;12.534;2024-03-22T02:46:14;101254.63;;;15.06;78.13
33414;BME280;60055;41.884;12.534;2024-03-22T02:48:39;101253.81;;;15.04;78.27
33414;BME280;60055;41.884;12.534;2024-03-22T02:51:05;101252.59;;;15.11;77.58
33414;BME280;60055;41.884;12.534;2024-03-22T02:53:30;101246.28;;;14.95;78.68
33414;BME280;60055;41.884;12.534;2024-03-22T02:55:59;101246.94;;;15.00;79.11
33414;BME280;60055;41.884;12.534;2024-03-22T02:58:25;101243.31;;;15.01;79.00
33414;BME280;60055;41.884;12.534;2024-03-22T03:00:51;101248.66;;;15.01;79.54
33414;BME280;60055;41.884;12.534;2024-03-22T03:03:16;101241.72;;;14.97;79.59
33414;BME280;60055;41.884;12.534;2024-03-22T03:05:42;101241.19;;;15.09;79.29
33414;BME280;60055;41.884;12.534;2024-03-22T03:08:09;101246.81;;;15.03;79.50
33414;BME280;60055;41.884;12.534;2024-03-22T03:10:35;101244.72;;;15.10;79.31
33414;BME280;60055;41.884;12.534;2024-03-22T03:13:00;101235.19;;;15.04;79.76
33414;BME280;60055;41.884;12.534;2024-03-22T03:15:26;101239.53;;;15.07;79.47
33414;BME280;60055;41.884;12.534;2024-03-22T03:17:51;101238.72;;;15.05;79.06
33414;BME280;60055;41.884;12.534;2024-03-22T03:20:17;101235.34;;;15.01;78.98
33414;BME280;60055;41.884;12.534;2024-03-22T03:22:42;101237.56;;;14.92;78.85
33414;BME280;60055;41.884;12.534;2024-03-22T03:25:08;101238.38;;;14.94;79.60
33414;BME280;60055;41.884;12.534;2024-03-22T03:27:34;101237.72;;;14.89;79.33
33414;BME280;60055;41.884;12.534;2024-03-22T03:30:00;101239.66;;;14.85;79.35
33414;BME280;60055;41.884;12.534;2024-03-22T03:32:26;101233.25;;;14.89;80.08
33414;BME280;60055;41.884;12.534;2024-03-22T03:34:52;101239.25;;;14.74;80.94
33414;BME280;60055;41.884;12.534;2024-03-22T03:37:18;101239.97;;;14.17;84.21
33414;BME280;60055;41.884;12.534;2024-03-22T03:39:43;101238.88;;;14.22;83.41
33414;BME280;60055;41.884;12.534;2024-03-22T03:42:09;101234.13;;;13.89;85.84
33414;BME280;60055;41.884;12.534;2024-03-22T03:44:35;101233.91;;;13.93;86.03
33414;BME280;60055;41.884;12.534;2024-03-22T03:47:01;101235.59;;;13.96;86.31
33414;BME280;60055;41.884;12.534;2024-03-22T03:49:27;101240.84;;;13.75;87.74
33414;BME280;60055;41.884;12.534;2024-03-22T03:51:52;101228.81;;;13.89;87.56
33414;BME280;60055;41.884;12.534;2024-03-22T03:54:18;101229.13;;;13.81;87.71
33414;BME280;60055;41.884;12.534;2024-03-22T03:56:43;101221.81;;;13.86;87.58
33414;BME280;60055;41.884;12.534;2024-03-22T03:59:09;101220.50;;;13.96;86.95
33414;BME280;60055;41.884;12.534;2024-03-22T04:01:34;101228.91;;;14.07;86.77
33414;BME280;60055;41.884;12.534;2024-03-22T04:04:00;101228.34;;;14.19;85.75
33414;BME280;60055;41.884;12.534;2024-03-22T04:06:25;101215.81;;;14.23;85.10
33414;BME280;60055;41.884;12.534;2024-03-22T04:08:51;101217.22;;;14.11;85.10
33414;BME280;60055;41.884;12.534;2024-03-22T04:11:16;101202.66;;;14.20;84.40
33414;BME280;60055;41.884;12.534;2024-03-22T04:13:42;101205.72;;;14.31;84.32
33414;BME280;60055;41.884;12.534;2024-03-22T04:16:07;101204.63;;;14.37;84.54
33414;BME280;60055;41.884;12.534;2024-03-22T04:18:32;101207.47;;;14.32;84.63
33414;BME280;60055;41.884;12.534;2024-03-22T04:20:59;101212.03;;;14.08;86.21
33414;BME280;60055;41.884;12.534;2024-03-22T04:23:25;101219.06;;;14.09;86.29
33414;BME280;60055;41.884;12.534;2024-03-22T04:25:57;101217.53;;;14.04;87.88
33414;BME280;60055;41.884;12.534;2024-03-22T04:28:24;101224.84;;;13.99;87.87
33414;BME280;60055;41.884;12.534;2024-03-22T04:33:24;101220.53;;;14.16;86.96
33414;BME280;60055;41.884;12.534;2024-03-22T04:35:50;101229.72;;;14.29;86.06
33414;BME280;60055;41.884;12.534;2024-03-22T04:38:16;101229.22;;;14.42;85.28
33414;BME280;60055;41.884;12.534;2024-03-22T04:40:41;101236.09;;;14.25;86.28
33414;BME280;60055;41.884;12.534;2024-03-22T04:43:07;101235.34;;;14.22;88.30
33414;BME280;60055;41.884;12.534;2024-03-22T04:45:33;101240.84;;;14.17;89.22
33414;BME280;60055;41.884;12.534;2024-03-22T04:47:58;101251.47;;;14.17;89.74
33414;BME280;60055;41.884;12.534;2024-03-22T04:50:24;101251.94;;;14.07;90.20
33414;BME280;60055;41.884;12.534;2024-03-22T04:52:49;101265.66;;;13.96;91.66
33414;BME280;60055;41.884;12.534;2024-03-22T04:55:15;101267.50;;;13.94;91.97
33414;BME280;60055;41.884;12.534;2024-03-22T04:57:40;101271.22;;;13.90;92.89
33414;BME280;60055;41.884;12.534;2024-03-22T05:00:06;101274.69;;;13.92;93.00
33414;BME280;60055;41.884;12.534;2024-03-22T05:02:34;101274.88;;;13.88;92.92
33414;BME280;60055;41.884;12.534;2024-03-22T05:05:00;101293.16;;;13.95;92.43
33414;BME280;60055;41.884;12.534;2024-03-22T05:07:25;101294.44;;;13.85;92.02
33414;BME280;60055;41.884;12.534;2024-03-22T05:09:50;101297.44;;;13.76;92.53
33414;BME280;60055;41.884;12.534;2024-03-22T05:12:16;101302.22;;;13.68;92.58
33414;BME280;60055;41.884;12.534;2024-03-22T05:14:41;101292.06;;;13.56;93.24
33414;BME280;60055;41.884;12.534;2024-03-22T05:17:07;101300.22;;;13.51;93.12
33414;BME280;60055;41.884;12.534;2024-03-22T05:19:33;101307.69;;;13.42;93.92
33414;BME280;60055;41.884;12.534;2024-03-22T05:21:58;101311.25;;;13.41;94.24
33414;BME280;60055;41.884;12.534;2024-03-22T05:24:25;101317.53;;;13.38;94.12
33414;BME280;60055;41.884;12.534;2024-03-22T05:26:51;101315.84;;;13.36;95.70
33414;BME280;60055;41.884;12.534;2024-03-22T05:29:16;101325.06;;;13.49;94.03
33414;BME280;60055;41.884;12.534;2024-03-22T05:31:48;101314.63;;;13.67;93.59
33414;BME280;60055;41.884;12.534;2024-03-22T05:34:16;101331.75;;;13.82;92.71
33414;BME280;60055;41.884;12.534;2024-03-22T05:36:42;101324.00;;;13.98;92.03
33414;BME280;60055;41.884;12.534;2024-03-22T05:39:08;101328.44;;;13.97;91.31
33414;BME280;60055;41.884;12.534;2024-03-22T05:41:33;101320.78;;;14.11;91.12
33414;BME280;60055;41.884;12.534;2024-03-22T05:43:59;101322.19;;;14.20;90.18
33414;BME280;60055;41.884;12.534;2024-03-22T05:46:24;101321.41;;;14.40;89.77
33414;BME280;60055;41.884;12.534;2024-03-22T05:48:50;101322.34;;;14.39;89.21
33414;BME280;60055;41.884;12.534;2024-03-22T05:51:17;101330.00;;;14.46;88.68
33414;BME280;60055;41.884;12.534;2024-03-22T05:53:43;101326.34;;;14.49;88.33
33414;BME280;60055;41.884;12.534;2024-03-22T05:56:08;101326.47;;;14.46;87.79
33414;BME280;60055;41.884;12.534;2024-03-22T05:58:34;101315.53;;;14.31;88.92
33414;BME280;60055;41.884;12.534;2024-03-22T06:00:59;101321.41;;;14.40;88.03
33414;BME280;60055;41.884;12.534;2024-03-22T06:03:25;101325.81;;;14.19;89.56
33414;BME280;60055;41.884;12.534;2024-03-22T06:05:52;101328.44;;;13.97;90.45
33414;BME280;60055;41.884;12.534;2024-03-22T06:08:20;101325.72;;;14.20;89.75
33414;BME280;60055;41.884;12.534;2024-03-22T06:10:45;101325.06;;;14.15;90.01
33414;BME280;60055;41.884;12.534;2024-03-22T06:13:11;101330.91;;;14.23;89.87
33414;BME280;60055;41.884;12.534;2024-03-22T06:15:36;101329.41;;;14.60;88.64
33414;BME280;60055;41.884;12.534;2024-03-22T06:18:04;101328.13;;;14.48;88.57
33414;BME280;60055;41.884;12.534;2024-03-22T06:20:29;101328.19;;;14.67;88.11
33414;BME280;60055;41.884;12.534;2024-03-22T06:22:56;101318.88;;;14.77;87.45
33414;BME280;60055;41.884;12.534;2024-03-22T06:25:22;101326.75;;;14.80;86.75
33414;BME280;60055;41.884;12.534;2024-03-22T06:27:48;101328.41;;;15.21;85.52
33414;BME280;60055;41.884;12.534;2024-03-22T06:30:13;101320.22;;;15.45;83.41
33414;BME280;60055;41.884;12.534;2024-03-22T06:32:39;101309.19;;;15.54;82.52
33414;BME280;60055;41.884;12.534;2024-03-22T06:35:04;101311.72;;;15.57;82.04
33414;BME280;60055;41.884;12.534;2024-03-22T06:37:30;101306.28;;;15.40;82.46
33414;BME280;60055;41.884;12.534;2024-03-22T06:39:56;101309.38;;;15.87;81.71
33414;BME280;60055;41.884;12.534;2024-03-22T06:42:23;101304.56;;;15.95;79.78
33414;BME280;60055;41.884;12.534;2024-03-22T06:44:49;101319.03;;;16.25;79.12
33414;BME280;60055;41.884;12.534;2024-03-22T06:47:14;101315.69;;;16.56;78.23
33414;BME280;60055;41.884;12.534;2024-03-22T06:49:39;101316.31;;;16.61;76.99
33414;BME280;60055;41.884;12.534;2024-03-22T06:52:05;101319.75;;;16.46;76.90
33414;BME280;60055;41.884;12.534;2024-03-22T06:54:31;101310.56;;;16.85;75.23
33414;BME280;60055;41.884;12.534;2024-03-22T06:56:56;101309.53;;;17.21;74.10
33414;BME280;60055;41.884;12.534;2024-03-22T06:59:22;101308.66;;;17.20;72.80
33414;BME280;60055;41.884;12.534;2024-03-22T07:01:47;101311.19;;;17.56;71.55
33414;BME280;60055;41.884;12.534;2024-03-22T07:04:12;101308.84;;;17.66;71.01
33414;BME280;60055;41.884;12.534;2024-03-22T07:06:38;101311.88;;;17.91;69.32
33414;BME280;60055;41.884;12.534;2024-03-22T07:09:03;101311.09;;;17.89;69.15
33414;BME280;60055;41.884;12.534;2024-03-22T07:11:28;101313.34;;;17.81;69.52
33414;BME280;60055;41.884;12.534;2024-03-22T07:13:55;101319.72;;;18.39;67.87
33414;BME280;60055;41.884;12.534;2024-03-22T07:16:20;101320.69;;;18.23;67.89
33414;BME280;60055;41.884;12.534;2024-03-22T07:18:45;101334.09;;;17.92;68.41
33414;BME280;60055;41.884;12.534;2024-03-22T07:21:13;101332.28;;;17.61;69.77
33414;BME280;60055;41.884;12.534;2024-03-22T07:23:38;101333.78;;;17.33;70.40
33414;BME280;60055;41.884;12.534;2024-03-22T07:26:04;101327.84;;;17.11;70.60
33414;BME280;60055;41.884;12.534;2024-03-22T07:28:31;101333.88;;;16.65;72.03
33414;BME280;60055;41.884;12.534;2024-03-22T07:30:56;101334.44;;;16.71;72.43
33414;BME280;60055;41.884;12.534;2024-03-22T07:33:21;101328.19;;;16.54;74.65
33414;BME280;60055;41.884;12.534;2024-03-22T07:35:47;101335.13;;;16.75;74.43
33414;BME280;60055;41.884;12.534;2024-03-22T07:38:12;101319.25;;;17.06;73.90
33414;BME280;60055;41.884;12.534;2024-03-22T07:40:37;101332.63;;;16.89;72.73
33414;BME280;60055;41.884;12.534;2024-03-22T07:43:03;101325.72;;;17.18;72.36
33414;BME280;60055;41.884;12.534;2024-03-22T07:45:35;101324.19;;;17.78;70.55
33414;BME280;60055;41.884;12.534;2024-03-22T07:48:00;101328.13;;;18.02;68.95
33414;BME280;60055;41.884;12.534;2024-03-22T07:50:26;101328.91;;;18.20;67.95
33414;BME280;60055;41.884;12.534;2024-03-22T07:52:51;101328.69;;;17.93;68.35
33414;BME280;60055;41.884;12.534;2024-03-22T07:55:17;101322.84;;;17.71;68.52
33414;BME280;60055;41.884;12.534;2024-03-22T07:57:42;101325.47;;;18.02;68.22
33414;BME280;60055;41.884;12.534;2024-03-22T08:00:08;101323.56;;;18.50;66.53
33414;BME280;60055;41.884;12.534;2024-03-22T08:02:34;101325.22;;;18.52;65.05
33414;BME280;60055;41.884;12.534;2024-03-22T08:05:00;101323.56;;;18.65;64.44
33414;BME280;60055;41.884;12.534;2024-03-22T08:07:26;101320.47;;;19.29;63.43
33414;BME280;60055;41.884;12.534;2024-03-22T08:09:52;101328.81;;;19.53;61.50
33414;BME280;60055;41.884;12.534;2024-03-22T08:12:17;101326.94;;;20.09;60.48
33414;BME280;60055;41.884;12.534;2024-03-22T08:14:44;101330.41;;;20.11;58.62
33414;BME280;60055;41.884;12.534;2024-03-22T08:17:10;101331.22;;;19.84;60.44
33414;BME280;60055;41.884;12.534;2024-03-22T08:19:37;101323.88;;;20.42;58.47
33414;BME280;60055;41.884;12.534;2024-03-22T08:22:03;101329.47;;;19.57;59.53
33414;BME280;60055;41.884;12.534;2024-03-22T08:24:29;101330.13;;;20.01;59.17
33414;BME280;60055;41.884;12.534;2024-03-22T08:27:01;101321.38;;;20.38;57.57
33414;BME280;60055;41.884;12.534;2024-03-22T08:29:26;101323.19;;;20.90;55.99
33414;BME280;60055;41.884;12.534;2024-03-22T08:31:52;101317.91;;;20.76;56.09
33414;BME280;60055;41.884;12.534;2024-03-22T08:34:18;101326.25;;;20.19;57.29
33414;BME280;60055;41.884;12.534;2024-03-22T08:36:43;101305.91;;;20.03;58.06
33414;BME280;60055;41.884;12.534;2024-03-22T08:39:09;101305.91;;;20.03;58.42
33414;BME280;60055;41.884;12.534;2024-03-22T08:41:38;101315.31;;;20.22;58.60
33414;BME280;60055;41.884;12.534;2024-03-22T08:44:04;101302.88;;;20.61;56.62
33414;BME280;60055;41.884;12.534;2024-03-22T08:46:29;101320.69;;;20.62;56.76
33414;BME280;60055;41.884;12.534;2024-03-22T08:48:56;101320.69;;;20.62;56.36
33414;BME280;60055;41.884;12.534;2024-03-22T08:51:22;101315.69;;;20.30;56.73
33414;BME280;60055;41.884;12.534;2024-03-22T08:53:47;101319.41;;;20.28;56.09
33414;BME280;60055;41.884;12.534;2024-03-22T08:56:13;101318.81;;;20.10;55.98
33414;BME280;60055;41.884;12.534;2024-03-22T08:58:38;101330.28;;;20.12;56.68
33414;BME280;60055;41.884;12.534;2024-03-22T09:01:05;101334.75;;;20.53;55.59
33414;BME280;60055;41.884;12.534;2024-03-22T09:03:30;101333.13;;;20.23;55.83
33414;BME280;60055;41.884;12.534;2024-03-22T09:05:56;101334.31;;;20.05;55.54
33414;BME280;60055;41.884;12.534;2024-03-22T09:08:22;101328.75;;;19.81;56.03
33414;BME280;60055;41.884;12.534;2024-03-22T09:10:47;101335.00;;;19.68;56.65
33414;BME280;60055;41.884;12.534;2024-03-22T09:13:13;101333.19;;;19.26;57.76
33414;BME280;60055;41.884;12.534;2024-03-22T09:15:39;101337.75;;;19.24;59.30
33414;BME280;60055;41.884;12.534;2024-03-22T09:18:05;101344.50;;;19.45;58.53
33414;BME280;60055;41.884;12.534;2024-03-22T09:20:30;101348.69;;;20.04;56.94
33414;BME280;60055;41.884;12.534;2024-03-22T09:22:56;101349.63;;;19.76;57.12
33414;BME280;60055;41.884;12.534;2024-03-22T09:25:23;101354.34;;;19.59;56.30
33414;BME280;60055;41.884;12.534;2024-03-22T09:27:48;101350.00;;;19.14;58.37
33414;BME280;60055;41.884;12.534;2024-03-22T09:30:14;101349.78;;;19.47;56.70
33414;BME280;60055;41.884;12.534;2024-03-22T09:32:40;101342.44;;;19.06;58.94
33414;BME280;60055;41.884;12.534;2024-03-22T09:35:06;101351.06;;;19.11;58.95
33414;BME280;60055;41.884;12.534;2024-03-22T09:37:31;101340.53;;;19.36;57.86
33414;BME280;60055;41.884;12.534;2024-03-22T09:39:56;101340.66;;;19.35;58.12
33414;BME280;60055;41.884;12.534;2024-03-22T09:42:23;101329.56;;;19.55;57.47
33414;BME280;60055;41.884;12.534;2024-03-22T09:44:50;101330.41;;;19.13;57.23
33414;BME280;60055;41.884;12.534;2024-03-22T09:47:16;101317.38;;;18.93;58.18
33414;BME280;60055;41.884;12.534;2024-03-22T09:49:42;101329.91;;;18.78;58.65
33414;BME280;60055;41.884;12.534;2024-03-22T09:52:13;101328.69;;;18.98;57.42
33414;BME280;60055;41.884;12.534;2024-03-22T09:54:41;101326.00;;;18.98;57.00
33414;BME280;60055;41.884;12.534;2024-03-22T09:57:09;101326.38;;;19.06;55.55
33414;BME280;60055;41.884;12.534;2024-03-22T09:59:37;101332.16;;;19.43;55.25
33414;BME280;60055;41.884;12.534;2024-03-22T10:02:03;101328.41;;;19.59;54.78
33414;BME280;60055;41.884;12.534;2024-03-22T10:04:29;101321.78;;;19.79;53.34
33414;BME280;60055;41.884;12.534;2024-03-22T10:06:55;101321.53;;;19.55;52.86
33414;BME280;60055;41.884;12.534;2024-03-22T10:09:28;101310.31;;;19.63;53.00
33414;BME280;60055;41.884;12.534;2024-03-22T10:11:55;101318.03;;;19.81;53.03
33414;BME280;60055;41.884;12.534;2024-03-22T10:14:20;101320.13;;;19.91;52.81
33414;BME280;60055;41.884;12.534;2024-03-22T10:16:46;101318.00;;;20.22;52.28
33414;BME280;60055;41.884;12.534;2024-03-22T10:19:11;101317.22;;;20.34;51.96
33414;BME280;60055;41.884;12.534;2024-03-22T10:21:37;101322.41;;;20.50;51.59
33414;BME280;60055;41.884;12.534;2024-03-22T10:24:02;101313.06;;;20.56;50.45
33414;BME280;60055;41.884;12.534;2024-03-22T10:26:29;101308.78;;;20.26;50.73
33414;BME280;60055;41.884;12.534;2024-03-22T10:28:54;101307.22;;;20.10;51.25
33414;BME280;60055;41.884;12.534;2024-03-22T10:31:20;101301.63;;;20.00;51.94
33414;BME280;60055;41.884;12.534;2024-03-22T10:33:46;101288.28;;;19.72;52.45
33414;BME280;60055;41.884;12.534;2024-03-22T10:36:12;101289.81;;;19.76;51.51
33414;BME280;60055;41.884;12.534;2024-03-22T10:38:39;101288.69;;;19.37;53.01
33414;BME280;60055;41.884;12.534;2024-03-22T10:41:04;101283.81;;;19.58;51.79
33414;BME280;60055;41.884;12.534;2024-03-22T10:43:30;101289.88;;;19.88;51.70
33414;BME280;60055;41.884;12.534;2024-03-22T10:46:00;101283.94;;;19.28;51.74
33414;BME280;60055;41.884;12.534;2024-03-22T10:48:30;101284.91;;;19.42;52.91
33414;BME280;60055;41.884;12.534;2024-03-22T10:51:00;101282.19;;;19.70;51.67
33414;BME280;60055;41.884;12.534;2024-03-22T10:53:27;101292.13;;;19.54;51.64
33414;BME280;60055;41.884;12.534;2024-03-22T10:56:12;101285.66;;;19.44;51.57
33414;BME280;60055;41.884;12.534;2024-03-22T10:58:40;101279.59;;;19.40;51.69
33414;BME280;60055;41.884;12.534;2024-03-22T11:01:06;101286.75;;;19.68;51.49
33414;BME280;60055;41.884;12.534;2024-03-22T11:03:31;101290.34;;;19.81;50.89
33414;BME280;60055;41.884;12.534;2024-03-22T11:05:59;101289.59;;;19.52;51.08
33414;BME280;60055;41.884;12.534;2024-03-22T11:10:50;101294.28;;;19.89;50.51
33414;BME280;60055;41.884;12.534;2024-03-22T11:13:16;101282.69;;;20.16;49.91
33414;BME280;60055;41.884;12.534;2024-03-22T11:15:42;101283.97;;;20.23;49.48
33414;BME280;60055;41.884;12.534;2024-03-22T11:18:08;101287.06;;;20.44;49.87
33414;BME280;60055;41.884;12.534;2024-03-22T11:20:36;101278.41;;;20.65;49.26
33414;BME280;60055;41.884;12.534;2024-03-22T11:23:03;101272.41;;;20.74;47.94
33414;BME280;60055;41.884;12.534;2024-03-22T11:25:31;101273.88;;;20.53;47.47
33414;BME280;60055;41.884;12.534;2024-03-22T11:27:57;101266.16;;;20.22;48.33
33414;BME280;60055;41.884;12.534;2024-03-22T11:30:25;101271.50;;;20.36;48.44
33414;BME280;60055;41.884;12.534;2024-03-22T11:32:51;101260.47;;;20.14;49.07
33414;BME280;60055;41.884;12.534;2024-03-22T11:35:17;101260.13;;;20.06;49.43
33414;BME280;60055;41.884;12.534;2024-03-22T11:37:42;101256.25;;;19.97;49.50
33414;BME280;60055;41.884;12.534;2024-03-22T11:40:11;101248.25;;;20.22;48.50
33414;BME280;60055;41.884;12.534;2024-03-22T11:42:41;101244.63;;;20.23;47.70
33414;BME280;60055;41.884;12.534;2024-03-22T11:45:08;101245.09;;;20.30;47.73
33414;BME280;60055;41.884;12.534;2024-03-22T11:47:35;101232.34;;;20.46;48.47
33414;BME280;60055;41.884;12.534;2024-03-22T11:50:01;101224.28;;;20.59;46.99
33414;BME280;60055;41.884;12.534;2024-03-22T11:52:27;101222.03;;;20.53;47.32
33414;BME280;60055;41.884;12.534;2024-03-22T11:54:53;101225.72;;;20.64;45.54
33414;BME280;60055;41.884;12.534;2024-03-22T11:57:20;101220.00;;;20.69;45.24
33414;BME280;60055;41.884;12.534;2024-03-22T11:59:45;101214.72;;;20.29;46.36
33414;BME280;60055;41.884;12.534;2024-03-22T12:02:11;101210.03;;;20.71;46.75
33414;BME280;60055;41.884;12.534;2024-03-22T12:04:40;101223.13;;;20.75;45.43
33414;BME280;60055;41.884;12.534;2024-03-22T12:07:10;101213.78;;;20.56;46.03
33414;BME280;60055;41.884;12.534;2024-03-22T12:09:35;101214.31;;;20.86;47.46
33414;BME280;60055;41.884;12.534;2024-03-22T12:12:01;101215.38;;;20.96;45.89
33414;BME280;60055;41.884;12.534;2024-03-22T12:14:26;101210.22;;;20.93;45.15
33414;BME280;60055;41.884;12.534;2024-03-22T12:16:51;101212.63;;;20.85;45.19
33414;BME280;60055;41.884;12.534;2024-03-22T12:19:17;101204.75;;;20.82;46.16
33414;BME280;60055;41.884;12.534;2024-03-22T12:21:42;101197.78;;;20.79;45.83
33414;BME280;60055;41.884;12.534;2024-03-22T12:24:08;101196.78;;;20.93;45.28
33414;BME280;60055;41.884;12.534;2024-03-22T12:26:33;101197.34;;;20.73;44.33
33414;BME280;60055;41.884;12.534;2024-03-22T12:28:58;101194.25;;;20.92;44.62
33414;BME280;60055;41.884;12.534;2024-03-22T12:31:24;101195.81;;;21.19;44.32
33414;BME280;60055;41.884;12.534;2024-03-22T12:33:49;101202.91;;;21.08;44.33
33414;BME280;60055;41.884;12.534;2024-03-22T12:36:14;101198.09;;;20.87;44.56
33414;BME280;60055;41.884;12.534;2024-03-22T12:38:40;101197.19;;;21.25;44.57